sensor_id;sensor_type;location;lat;lon;timestamp;P1;durP1;ratioP1;P2;durP2;ratioP2
74677;SDS011;67324;56.326;43.982;2023-05-14T00:01:08;7.43;;;5.68;;
74677;SDS011;67324;56.326;43.982;2023-05-14T00:03:34;6.55;;;5.65;;
74677;SDS011;67324;56.326;43.982;2023-05-14T00:06:01;7.80;;;6.28;;
74677;SDS011;67324;56.326;43.982;2023-05-14T00:08:27;8.32;;;6.25;;
74677;SDS011;67324;56.326;43.982;2023-05-14T00:10:53;7.68;;;6.25;;
74677;SDS011;67324;56.326;43.982;2023-05-14T00:13:19;8.00;;;6.60;;
74677;SDS011;67324;56.326;43.982;2023-05-14T00:15:45;7.65;;;6.38;;
74677;SDS011;67324;56.326;43.982;2023-05-14T00:18:11;6.82;;;5.80;;
74677;SDS011;67324;56.326;43.982;2023-05-14T00:20:37;8.02;;;6.32;;
74677;SDS011;67324;56.326;43.982;2023-05-14T00:23:03;6.80;;;6.10;;
74677;SDS011;67324;56.326;43.982;2023-05-14T00:25:29;7.13;;;5.97;;
74677;SDS011;67324;56.326;43.982;2023-05-14T00:27:55;7.45;;;6.10;;
74677;SDS011;67324;56.326;43.982;2023-05-14T00:30:20;8.68;;;6.35;;
74677;SDS011;67324;56.326;43.982;2023-05-14T00:33:05;7.45;;;6.18;;
74677;SDS011;67324;56.326;43.982;2023-05-14T00:35:31;8.05;;;6.40;;
74677;SDS011;67324;56.326;43.982;2023-05-14T00:37:59;7.07;;;5.88;;
74677;SDS011;67324;56.326;43.982;2023-05-14T00:40:45;8.18;;;6.38;;
74677;SDS011;67324;56.326;43.982;2023-05-14T00:43:17;8.30;;;6.35;;
74677;SDS011;67324;56.326;43.982;2023-05-14T00:45:43;8.13;;;6.15;;
74677;SDS011;67324;56.326;43.982;2023-05-14T00:48:10;7.32;;;6.25;;
74677;SDS011;67324;56.326;43.982;2023-05-14T00:50:36;7.07;;;6.20;;
74677;SDS011;67324;56.326;43.982;2023-05-14T00:53:02;7.50;;;6.10;;
74677;SDS011;67324;56.326;43.982;2023-05-14T00:55:37;7.53;;;6.10;;
74677;SDS011;67324;56.326;43.982;2023-05-14T00:58:08;7.53;;;6.05;;
74677;SDS011;67324;56.326;43.982;2023-05-14T01:00:36;7.45;;;6.15;;
74677;SDS011;67324;56.326;43.982;2023-05-14T01:03:21;7.32;;;5.88;;
74677;SDS011;67324;56.326;43.982;2023-05-14T01:08:49;7.90;;;6.18;;
74677;SDS011;67324;56.326;43.982;2023-05-14T01:11:39;7.47;;;6.15;;
74677;SDS011;67324;56.326;43.982;2023-05-14T01:16:57;7.43;;;6.28;;
74677;SDS011;67324;56.326;43.982;2023-05-14T01:19:38;7.10;;;5.85;;
74677;SDS011;67324;56.326;43.982;2023-05-14T01:22:05;7.43;;;5.93;;
74677;SDS011;67324;56.326;43.982;2023-05-14T01:24:32;7.35;;;5.80;;
74677;SDS011;67324;56.326;43.982;2023-05-14T01:29:37;6.97;;;5.60;;
74677;SDS011;67324;56.326;43.982;2023-05-14T01:32:30;6.93;;;5.68;;
74677;SDS011;67324;56.326;43.982;2023-05-14T01:35:16;7.93;;;5.80;;
74677;SDS011;67324;56.326;43.982;2023-05-14T01:37:43;8.30;;;6.05;;
74677;SDS011;67324;56.326;43.982;2023-05-14T01:40:12;7.22;;;5.90;;
74677;SDS011;67324;56.326;43.982;2023-05-14T01:42:38;7.00;;;5.78;;
74677;SDS011;67324;56.326;43.982;2023-05-14T01:45:06;7.00;;;6.28;;
74677;SDS011;67324;56.326;43.982;2023-05-14T01:47:32;7.65;;;6.10;;
74677;SDS011;67324;56.326;43.982;2023-05-14T01:49:58;6.90;;;5.68;;
74677;SDS011;67324;56.326;43.982;2023-05-14T01:52:24;6.65;;;5.50;;
74677;SDS011;67324;56.326;43.982;2023-05-14T01:54:51;7.10;;;5.50;;
74677;SDS011;67324;56.326;43.982;2023-05-14T01:57:17;6.55;;;5.50;;
74677;SDS011;67324;56.326;43.982;2023-05-14T01:59:43;7.90;;;6.25;;
74677;SDS011;67324;56.326;43.982;2023-05-14T02:02:09;7.13;;;5.90;;
74677;SDS011;67324;56.326;43.982;2023-05-14T02:04:35;7.28;;;6.05;;
74677;SDS011;67324;56.326;43.982;2023-05-14T02:07:19;7.40;;;5.95;;
74677;SDS011;67324;56.326;43.982;2023-05-14T02:09:45;6.90;;;5.60;;
74677;SDS011;67324;56.326;43.982;2023-05-14T02:12:11;6.55;;;5.25;;
74677;SDS011;67324;56.326;43.982;2023-05-14T02:14:37;6.20;;;5.57;;
74677;SDS011;67324;56.326;43.982;2023-05-14T02:17:03;6.68;;;5.68;;
74677;SDS011;67324;56.326;43.982;2023-05-14T02:19:29;7.85;;;5.78;;
74677;SDS011;67324;56.326;43.982;2023-05-14T02:21:57;7.18;;;5.78;;
74677;SDS011;67324;56.326;43.982;2023-05-14T02:24:23;7.15;;;5.72;;
74677;SDS011;67324;56.326;43.982;2023-05-14T02:26:49;7.30;;;5.93;;
74677;SDS011;67324;56.326;43.982;2023-05-14T02:29:15;6.70;;;5.57;;
74677;SDS011;67324;56.326;43.982;2023-05-14T02:32:00;7.30;;;6.07;;
74677;SDS011;67324;56.326;43.982;2023-05-14T02:34:26;7.97;;;5.88;;
74677;SDS011;67324;56.326;43.982;2023-05-14T02:36:52;6.70;;;6.00;;
74677;SDS011;67324;56.326;43.982;2023-05-14T02:39:17;6.95;;;5.57;;
74677;SDS011;67324;56.326;43.982;2023-05-14T02:41:44;6.50;;;5.63;;
74677;SDS011;67324;56.326;43.982;2023-05-14T02:44:10;7.35;;;5.55;;
74677;SDS011;67324;56.326;43.982;2023-05-14T02:46:36;7.00;;;6.30;;
74677;SDS011;67324;56.326;43.982;2023-05-14T02:49:02;6.50;;;5.75;;
74677;SDS011;67324;56.326;43.982;2023-05-14T02:51:28;7.25;;;5.55;;
74677;SDS011;67324;56.326;43.982;2023-05-14T02:53:54;6.20;;;5.60;;
74677;SDS011;67324;56.326;43.982;2023-05-14T02:56:20;6.50;;;5.80;;
74677;SDS011;67324;56.326;43.982;2023-05-14T02:58:46;6.78;;;5.97;;
74677;SDS011;67324;56.326;43.982;2023-05-14T03:01:13;6.88;;;5.85;;
74677;SDS011;67324;56.326;43.982;2023-05-14T03:03:39;7.72;;;5.90;;
74677;SDS011;67324;56.326;43.982;2023-05-14T03:06:05;5.95;;;5.03;;
74677;SDS011;67324;56.326;43.982;2023-05-14T03:08:31;7.45;;;5.82;;
74677;SDS011;67324;56.326;43.982;2023-05-14T03:10:57;6.68;;;5.72;;
74677;SDS011;67324;56.326;43.982;2023-05-14T03:13:24;6.47;;;5.80;;
74677;SDS011;67324;56.326;43.982;2023-05-14T03:15:50;6.97;;;5.75;;
74677;SDS011;67324;56.326;43.982;2023-05-14T03:18:19;6.63;;;5.68;;
74677;SDS011;67324;56.326;43.982;2023-05-14T03:20:46;6.60;;;5.38;;
74677;SDS011;67324;56.326;43.982;2023-05-14T03:23:12;6.20;;;5.35;;
74677;SDS011;67324;56.326;43.982;2023-05-14T03:25:39;5.97;;;5.38;;
74677;SDS011;67324;56.326;43.982;2023-05-14T03:28:05;7.18;;;6.05;;
74677;SDS011;67324;56.326;43.982;2023-05-14T03:30:31;6.90;;;5.72;;
74677;SDS011;67324;56.326;43.982;2023-05-14T03:32:58;6.70;;;5.47;;
74677;SDS011;67324;56.326;43.982;2023-05-14T03:35:24;6.72;;;5.57;;
74677;SDS011;67324;56.326;43.982;2023-05-14T03:37:50;6.63;;;5.10;;
74677;SDS011;67324;56.326;43.982;2023-05-14T03:40:17;6.32;;;5.28;;
74677;SDS011;67324;56.326;43.982;2023-05-14T03:42:43;6.35;;;5.43;;
74677;SDS011;67324;56.326;43.982;2023-05-14T03:45:10;7.05;;;5.57;;
74677;SDS011;67324;56.326;43.982;2023-05-14T03:47:36;7.38;;;5.85;;
74677;SDS011;67324;56.326;43.982;2023-05-14T03:50:02;6.60;;;5.47;;
74677;SDS011;67324;56.326;43.982;2023-05-14T03:52:29;6.30;;;5.25;;
74677;SDS011;67324;56.326;43.982;2023-05-14T03:54:55;6.47;;;5.50;;
74677;SDS011;67324;56.326;43.982;2023-05-14T03:57:21;6.72;;;5.47;;
74677;SDS011;67324;56.326;43.982;2023-05-14T03:59:47;6.10;;;5.43;;
74677;SDS011;67324;56.326;43.982;2023-05-14T04:02:13;6.78;;;5.75;;
74677;SDS011;67324;56.326;43.982;2023-05-14T04:04:40;6.53;;;5.57;;
74677;SDS011;67324;56.326;43.982;2023-05-14T04:07:06;6.88;;;5.50;;
74677;SDS011;67324;56.326;43.982;2023-05-14T04:09:33;6.53;;;5.22;;
74677;SDS011;67324;56.326;43.982;2023-05-14T04:11:59;6.35;;;5.47;;
74677;SDS011;67324;56.326;43.982;2023-05-14T04:14:26;6.25;;;5.40;;
74677;SDS011;67324;56.326;43.982;2023-05-14T04:16:52;6.45;;;5.38;;
74677;SDS011;67324;56.326;43.982;2023-05-14T04:19:17;6.65;;;5.55;;
74677;SDS011;67324;56.326;43.982;2023-05-14T04:21:43;6.60;;;5.55;;
74677;SDS011;67324;56.326;43.982;2023-05-14T04:24:09;6.10;;;5.50;;
74677;SDS011;67324;56.326;43.982;2023-05-14T04:26:35;6.32;;;5.18;;
74677;SDS011;67324;56.326;43.982;2023-05-14T04:29:01;6.47;;;5.25;;
74677;SDS011;67324;56.326;43.982;2023-05-14T04:31:28;6.90;;;5.75;;
74677;SDS011;67324;56.326;43.982;2023-05-14T04:33:54;5.97;;;5.35;;
74677;SDS011;67324;56.326;43.982;2023-05-14T04:36:20;6.43;;;5.47;;
74677;SDS011;67324;56.326;43.982;2023-05-14T04:38:46;6.90;;;5.72;;
74677;SDS011;67324;56.326;43.982;2023-05-14T04:41:13;5.82;;;5.00;;
74677;SDS011;67324;56.326;43.982;2023-05-14T04:43:57;6.30;;;5.32;;
74677;SDS011;67324;56.326;43.982;2023-05-14T04:46:26;7.03;;;5.40;;
74677;SDS011;67324;56.326;43.982;2023-05-14T04:48:53;6.38;;;5.65;;
74677;SDS011;67324;56.326;43.982;2023-05-14T04:51:18;6.30;;;5.35;;
74677;SDS011;67324;56.326;43.982;2023-05-14T04:53:44;5.88;;;5.25;;
74677;SDS011;67324;56.326;43.982;2023-05-14T04:56:10;6.25;;;5.47;;
74677;SDS011;67324;56.326;43.982;2023-05-14T04:58:36;5.85;;;5.25;;
74677;SDS011;67324;56.326;43.982;2023-05-14T05:01:03;6.70;;;5.60;;
74677;SDS011;67324;56.326;43.982;2023-05-14T05:03:30;6.03;;;5.43;;
74677;SDS011;67324;56.326;43.982;2023-05-14T05:05:56;6.05;;;5.03;;
74677;SDS011;67324;56.326;43.982;2023-05-14T05:08:22;6.57;;;5.28;;
74677;SDS011;67324;56.326;43.982;2023-05-14T05:10:48;6.93;;;5.30;;
74677;SDS011;67324;56.326;43.982;2023-05-14T05:13:14;6.70;;;5.35;;
74677;SDS011;67324;56.326;43.982;2023-05-14T05:15:41;6.65;;;5.40;;
74677;SDS011;67324;56.326;43.982;2023-05-14T05:18:08;6.43;;;5.30;;
74677;SDS011;67324;56.326;43.982;2023-05-14T05:20:35;6.85;;;5.60;;
74677;SDS011;67324;56.326;43.982;2023-05-14T05:23:01;5.85;;;5.10;;
74677;SDS011;67324;56.326;43.982;2023-05-14T05:25:27;6.63;;;5.38;;
74677;SDS011;67324;56.326;43.982;2023-05-14T05:27:53;7.05;;;5.32;;
74677;SDS011;67324;56.326;43.982;2023-05-14T05:30:19;6.00;;;5.40;;
74677;SDS011;67324;56.326;43.982;2023-05-14T05:32:45;6.25;;;5.25;;
74677;SDS011;67324;56.326;43.982;2023-05-14T05:35:11;6.15;;;5.40;;
74677;SDS011;67324;56.326;43.982;2023-05-14T05:37:36;6.32;;;5.13;;
74677;SDS011;67324;56.326;43.982;2023-05-14T05:40:21;6.68;;;5.28;;
74677;SDS011;67324;56.326;43.982;2023-05-14T05:42:47;5.70;;;5.10;;
74677;SDS011;67324;56.326;43.982;2023-05-14T05:45:13;5.72;;;5.13;;
74677;SDS011;67324;56.326;43.982;2023-05-14T05:47:39;6.63;;;5.25;;
74677;SDS011;67324;56.326;43.982;2023-05-14T05:50:05;6.53;;;5.25;;
74677;SDS011;67324;56.326;43.982;2023-05-14T05:52:31;6.15;;;5.15;;
74677;SDS011;67324;56.326;43.982;2023-05-14T05:54:57;6.55;;;5.28;;
74677;SDS011;67324;56.326;43.982;2023-05-14T05:57:23;6.22;;;5.15;;
74677;SDS011;67324;56.326;43.982;2023-05-14T05:59:51;6.43;;;5.05;;
74677;SDS011;67324;56.326;43.982;2023-05-14T06:02:18;6.53;;;5.30;;
74677;SDS011;67324;56.326;43.982;2023-05-14T06:04:44;5.95;;;5.35;;
74677;SDS011;67324;56.326;43.982;2023-05-14T06:07:10;6.43;;;5.18;;
74677;SDS011;67324;56.326;43.982;2023-05-14T06:09:36;6.35;;;5.15;;
74677;SDS011;67324;56.326;43.982;2023-05-14T06:12:02;6.25;;;5.10;;
74677;SDS011;67324;56.326;43.982;2023-05-14T06:14:28;6.18;;;5.03;;
74677;SDS011;67324;56.326;43.982;2023-05-14T06:16:54;5.78;;;4.95;;
74677;SDS011;67324;56.326;43.982;2023-05-14T06:19:20;6.03;;;5.18;;
74677;SDS011;67324;56.326;43.982;2023-05-14T06:21:47;5.68;;;5.00;;
74677;SDS011;67324;56.326;43.982;2023-05-14T06:24:13;6.45;;;5.15;;
74677;SDS011;67324;56.326;43.982;2023-05-14T06:26:39;5.72;;;5.03;;
74677;SDS011;67324;56.326;43.982;2023-05-14T06:29:05;5.72;;;5.13;;
74677;SDS011;67324;56.326;43.982;2023-05-14T06:31:31;6.15;;;5.05;;
74677;SDS011;67324;56.326;43.982;2023-05-14T06:33:56;6.00;;;5.18;;
74677;SDS011;67324;56.326;43.982;2023-05-14T06:36:22;5.72;;;5.07;;
74677;SDS011;67324;56.326;43.982;2023-05-14T06:38:48;5.53;;;4.53;;
74677;SDS011;67324;56.326;43.982;2023-05-14T06:41:14;6.20;;;5.18;;
74677;SDS011;67324;56.326;43.982;2023-05-14T06:43:41;6.18;;;5.00;;
74677;SDS011;67324;56.326;43.982;2023-05-14T06:46:06;6.32;;;4.88;;
74677;SDS011;67324;56.326;43.982;2023-05-14T06:48:32;5.47;;;4.97;;
74677;SDS011;67324;56.326;43.982;2023-05-14T06:50:59;5.57;;;5.05;;
74677;SDS011;67324;56.326;43.982;2023-05-14T06:53:25;5.53;;;4.72;;
74677;SDS011;67324;56.326;43.982;2023-05-14T06:55:50;5.47;;;4.80;;
74677;SDS011;67324;56.326;43.982;2023-05-14T06:58:16;5.45;;;4.95;;
74677;SDS011;67324;56.326;43.982;2023-05-14T07:00:42;5.78;;;4.93;;
74677;SDS011;67324;56.326;43.982;2023-05-14T07:03:08;6.25;;;5.15;;
74677;SDS011;67324;56.326;43.982;2023-05-14T07:05:34;6.03;;;5.22;;
74677;SDS011;67324;56.326;43.982;2023-05-14T07:08:00;5.85;;;5.10;;
74677;SDS011;67324;56.326;43.982;2023-05-14T07:10:26;6.40;;;5.32;;
74677;SDS011;67324;56.326;43.982;2023-05-14T07:12:52;5.85;;;5.13;;
74677;SDS011;67324;56.326;43.982;2023-05-14T07:15:18;5.63;;;4.88;;
74677;SDS011;67324;56.326;43.982;2023-05-14T07:17:44;5.78;;;4.95;;
74677;SDS011;67324;56.326;43.982;2023-05-14T07:20:10;5.50;;;4.93;;
74677;SDS011;67324;56.326;43.982;2023-05-14T07:22:36;5.95;;;4.88;;
74677;SDS011;67324;56.326;43.982;2023-05-14T07:25:02;7.00;;;5.38;;
74677;SDS011;67324;56.326;43.982;2023-05-14T07:27:30;5.90;;;4.80;;
74677;SDS011;67324;56.326;43.982;2023-05-14T07:29:56;5.43;;;4.85;;
74677;SDS011;67324;56.326;43.982;2023-05-14T07:32:22;5.43;;;4.82;;
74677;SDS011;67324;56.326;43.982;2023-05-14T07:34:49;5.85;;;5.20;;
74677;SDS011;67324;56.326;43.982;2023-05-14T07:37:15;5.63;;;4.78;;
74677;SDS011;67324;56.326;43.982;2023-05-14T07:39:41;5.50;;;4.70;;
74677;SDS011;67324;56.326;43.982;2023-05-14T07:42:07;5.60;;;4.80;;
74677;SDS011;67324;56.326;43.982;2023-05-14T07:44:33;5.70;;;4.75;;
74677;SDS011;67324;56.326;43.982;2023-05-14T07:46:59;5.57;;;4.78;;
74677;SDS011;67324;56.326;43.982;2023-05-14T07:49:25;5.10;;;4.50;;
74677;SDS011;67324;56.326;43.982;2023-05-14T07:51:51;5.95;;;4.55;;
74677;SDS011;67324;56.326;43.982;2023-05-14T07:54:16;5.60;;;5.00;;
74677;SDS011;67324;56.326;43.982;2023-05-14T07:56:42;5.53;;;4.93;;
74677;SDS011;67324;56.326;43.982;2023-05-14T07:59:09;6.03;;;5.20;;
74677;SDS011;67324;56.326;43.982;2023-05-14T08:01:34;4.85;;;4.35;;
74677;SDS011;67324;56.326;43.982;2023-05-14T08:04:00;5.82;;;4.85;;
74677;SDS011;67324;56.326;43.982;2023-05-14T08:06:45;5.65;;;5.03;;
74677;SDS011;67324;56.326;43.982;2023-05-14T08:09:11;5.47;;;4.68;;
74677;SDS011;67324;56.326;43.982;2023-05-14T08:11:37;5.18;;;4.68;;
74677;SDS011;67324;56.326;43.982;2023-05-14T08:14:03;6.13;;;4.75;;
74677;SDS011;67324;56.326;43.982;2023-05-14T08:16:29;5.53;;;4.70;;
74677;SDS011;67324;56.326;43.982;2023-05-14T08:18:55;5.00;;;4.50;;
74677;SDS011;67324;56.326;43.982;2023-05-14T08:21:21;5.88;;;4.60;;
74677;SDS011;67324;56.326;43.982;2023-05-14T08:23:47;5.32;;;4.65;;
74677;SDS011;67324;56.326;43.982;2023-05-14T08:26:13;5.65;;;4.88;;
74677;SDS011;67324;56.326;43.982;2023-05-14T08:28:38;5.85;;;4.82;;
74677;SDS011;67324;56.326;43.982;2023-05-14T08:31:04;6.35;;;5.18;;
74677;SDS011;67324;56.326;43.982;2023-05-14T08:33:30;5.88;;;4.80;;
74677;SDS011;67324;56.326;43.982;2023-05-14T08:35:56;5.40;;;4.63;;
74677;SDS011;67324;56.326;43.982;2023-05-14T08:38:24;5.25;;;4.57;;
74677;SDS011;67324;56.326;43.982;2023-05-14T08:40:56;5.32;;;4.65;;
74677;SDS011;67324;56.326;43.982;2023-05-14T08:43:26;5.78;;;5.03;;
74677;SDS011;67324;56.326;43.982;2023-05-14T08:45:59;5.40;;;4.60;;
74677;SDS011;67324;56.326;43.982;2023-05-14T08:48:31;5.82;;;4.68;;
74677;SDS011;67324;56.326;43.982;2023-05-14T08:50:58;4.60;;;4.15;;
74677;SDS011;67324;56.326;43.982;2023-05-14T08:53:26;5.10;;;4.60;;
74677;SDS011;67324;56.326;43.982;2023-05-14T08:55:51;5.60;;;4.63;;
74677;SDS011;67324;56.326;43.982;2023-05-14T08:58:18;5.18;;;4.32;;
74677;SDS011;67324;56.326;43.982;2023-05-14T09:00:45;4.82;;;4.30;;
74677;SDS011;67324;56.326;43.982;2023-05-14T09:03:11;5.43;;;4.90;;
74677;SDS011;67324;56.326;43.982;2023-05-14T09:05:37;5.20;;;4.60;;
74677;SDS011;67324;56.326;43.982;2023-05-14T09:08:04;5.22;;;4.32;;
74677;SDS011;67324;56.326;43.982;2023-05-14T09:10:29;6.40;;;4.70;;
74677;SDS011;67324;56.326;43.982;2023-05-14T09:12:56;5.32;;;4.68;;
74677;SDS011;67324;56.326;43.982;2023-05-14T09:15:22;4.85;;;4.35;;
74677;SDS011;67324;56.326;43.982;2023-05-14T09:17:52;5.05;;;4.30;;
74677;SDS011;67324;56.326;43.982;2023-05-14T09:20:18;5.80;;;5.18;;
74677;SDS011;67324;56.326;43.982;2023-05-14T09:22:44;5.65;;;4.55;;
74677;SDS011;67324;56.326;43.982;2023-05-14T09:25:10;5.07;;;4.50;;
74677;SDS011;67324;56.326;43.982;2023-05-14T09:27:37;5.28;;;4.70;;
74677;SDS011;67324;56.326;43.982;2023-05-14T09:30:04;5.50;;;4.72;;
74677;SDS011;67324;56.326;43.982;2023-05-14T09:32:38;5.10;;;4.50;;
74677;SDS011;67324;56.326;43.982;2023-05-14T09:35:09;5.70;;;4.50;;
74677;SDS011;67324;56.326;43.982;2023-05-14T09:37:35;6.03;;;4.20;;
74677;SDS011;67324;56.326;43.982;2023-05-14T09:40:05;5.03;;;4.53;;
74677;SDS011;67324;56.326;43.982;2023-05-14T09:42:33;5.53;;;4.93;;
74677;SDS011;67324;56.326;43.982;2023-05-14T09:44:59;4.93;;;4.35;;
74677;SDS011;67324;56.326;43.982;2023-05-14T09:47:26;5.03;;;4.53;;
74677;SDS011;67324;56.326;43.982;2023-05-14T09:49:51;5.18;;;4.22;;
74677;SDS011;67324;56.326;43.982;2023-05-14T09:52:18;5.53;;;4.68;;
74677;SDS011;67324;56.326;43.982;2023-05-14T09:54:45;5.20;;;4.38;;
74677;SDS011;67324;56.326;43.982;2023-05-14T09:57:11;5.75;;;4.57;;
74677;SDS011;67324;56.326;43.982;2023-05-14T09:59:37;5.20;;;4.40;;
74677;SDS011;67324;56.326;43.982;2023-05-14T10:02:03;5.22;;;4.30;;
74677;SDS011;67324;56.326;43.982;2023-05-14T10:04:32;5.35;;;4.55;;
74677;SDS011;67324;56.326;43.982;2023-05-14T10:06:58;5.00;;;4.25;;
74677;SDS011;67324;56.326;43.982;2023-05-14T10:09:25;6.18;;;4.90;;
74677;SDS011;67324;56.326;43.982;2023-05-14T10:11:55;5.50;;;5.00;;
74677;SDS011;67324;56.326;43.982;2023-05-14T10:14:27;4.82;;;4.32;;
74677;SDS011;67324;56.326;43.982;2023-05-14T10:16:58;5.85;;;4.68;;
74677;SDS011;67324;56.326;43.982;2023-05-14T10:19:25;5.95;;;4.55;;
74677;SDS011;67324;56.326;43.982;2023-05-14T10:21:54;5.53;;;4.90;;
74677;SDS011;67324;56.326;43.982;2023-05-14T10:24:21;5.40;;;4.47;;
74677;SDS011;67324;56.326;43.982;2023-05-14T10:26:49;5.30;;;4.50;;
74677;SDS011;67324;56.326;43.982;2023-05-14T10:29:15;4.93;;;4.30;;
74677;SDS011;67324;56.326;43.982;2023-05-14T10:31:51;4.80;;;4.30;;
74677;SDS011;67324;56.326;43.982;2023-05-14T10:34:39;5.47;;;4.60;;
74677;SDS011;67324;56.326;43.982;2023-05-14T10:37:09;5.45;;;4.47;;
74677;SDS011;67324;56.326;43.982;2023-05-14T10:42:12;5.35;;;4.45;;
74677;SDS011;67324;56.326;43.982;2023-05-14T10:45:00;6.20;;;4.60;;
74677;SDS011;67324;56.326;43.982;2023-05-14T10:47:32;5.72;;;4.85;;
74677;SDS011;67324;56.326;43.982;2023-05-14T10:50:03;5.45;;;4.72;;
74677;SDS011;67324;56.326;43.982;2023-05-14T10:52:31;4.90;;;4.40;;
74677;SDS011;67324;56.326;43.982;2023-05-14T10:54:59;5.00;;;4.30;;
74677;SDS011;67324;56.326;43.982;2023-05-14T10:57:28;5.18;;;4.57;;
74677;SDS011;67324;56.326;43.982;2023-05-14T10:59:56;4.82;;;4.32;;
74677;SDS011;67324;56.326;43.982;2023-05-14T11:02:30;6.75;;;5.00;;
74677;SDS011;67324;56.326;43.982;2023-05-14T11:04:59;5.72;;;4.70;;
74677;SDS011;67324;56.326;43.982;2023-05-14T11:07:39;5.15;;;4.57;;
74677;SDS011;67324;56.326;43.982;2023-05-14T11:10:12;5.20;;;4.65;;
74677;SDS011;67324;56.326;43.982;2023-05-14T11:12:40;5.40;;;4.35;;
74677;SDS011;67324;56.326;43.982;2023-05-14T11:15:08;4.68;;;4.18;;
74677;SDS011;67324;56.326;43.982;2023-05-14T11:17:36;5.53;;;4.57;;
74677;SDS011;67324;56.326;43.982;2023-05-14T11:20:04;4.95;;;4.20;;
74677;SDS011;67324;56.326;43.982;2023-05-14T11:22:31;5.95;;;4.72;;
74677;SDS011;67324;56.326;43.982;2023-05-14T11:25:01;5.78;;;4.75;;
74677;SDS011;67324;56.326;43.982;2023-05-14T11:27:32;4.90;;;4.35;;
74677;SDS011;67324;56.326;43.982;2023-05-14T11:29:58;6.28;;;4.78;;
74677;SDS011;67324;56.326;43.982;2023-05-14T11:32:25;4.90;;;4.40;;
74677;SDS011;67324;56.326;43.982;2023-05-14T11:34:51;4.88;;;4.30;;
74677;SDS011;67324;56.326;43.982;2023-05-14T11:37:18;5.65;;;4.30;;
74677;SDS011;67324;56.326;43.982;2023-05-14T11:39:45;5.50;;;4.85;;
74677;SDS011;67324;56.326;43.982;2023-05-14T11:42:15;5.47;;;4.30;;
74677;SDS011;67324;56.326;43.982;2023-05-14T11:44:43;4.88;;;4.32;;
74677;SDS011;67324;56.326;43.982;2023-05-14T11:47:13;5.00;;;4.32;;
74677;SDS011;67324;56.326;43.982;2023-05-14T11:49:40;5.43;;;4.45;;
74677;SDS011;67324;56.326;43.982;2023-05-14T11:52:09;4.68;;;4.15;;
74677;SDS011;67324;56.326;43.982;2023-05-14T11:54:38;5.20;;;4.22;;
74677;SDS011;67324;56.326;43.982;2023-05-14T11:57:09;5.20;;;4.30;;
74677;SDS011;67324;56.326;43.982;2023-05-14T11:59:37;5.55;;;4.30;;
74677;SDS011;67324;56.326;43.982;2023-05-14T12:02:04;5.60;;;4.50;;
74677;SDS011;67324;56.326;43.982;2023-05-14T12:04:32;4.97;;;4.47;;
74677;SDS011;67324;56.326;43.982;2023-05-14T12:06:59;4.97;;;4.47;;
74677;SDS011;67324;56.326;43.982;2023-05-14T12:09:25;4.85;;;4.25;;
74677;SDS011;67324;56.326;43.982;2023-05-14T12:11:51;5.43;;;4.10;;
74677;SDS011;67324;56.326;43.982;2023-05-14T12:14:21;4.88;;;4.10;;
74677;SDS011;67324;56.326;43.982;2023-05-14T12:16:48;5.57;;;4.70;;
74677;SDS011;67324;56.326;43.982;2023-05-14T12:19:18;4.90;;;3.90;;
74677;SDS011;67324;56.326;43.982;2023-05-14T12:21:47;4.75;;;4.05;;
74677;SDS011;67324;56.326;43.982;2023-05-14T12:24:33;5.13;;;4.38;;
74677;SDS011;67324;56.326;43.982;2023-05-14T12:27:00;5.30;;;4.47;;
74677;SDS011;67324;56.326;43.982;2023-05-14T12:29:26;5.03;;;4.28;;
74677;SDS011;67324;56.326;43.982;2023-05-14T12:31:52;5.88;;;4.50;;
74677;SDS011;67324;56.326;43.982;2023-05-14T12:34:22;5.00;;;4.50;;
74677;SDS011;67324;56.326;43.982;2023-05-14T12:36:47;4.63;;;4.05;;
74677;SDS011;67324;56.326;43.982;2023-05-14T12:39:14;5.25;;;4.20;;
74677;SDS011;67324;56.326;43.982;2023-05-14T12:41:40;5.07;;;4.57;;
74677;SDS011;67324;56.326;43.982;2023-05-14T12:44:05;5.25;;;4.63;;
74677;SDS011;67324;56.326;43.982;2023-05-14T12:46:32;4.55;;;4.10;;
74677;SDS011;67324;56.326;43.982;2023-05-14T12:48:58;5.00;;;3.92;;
74677;SDS011;67324;56.326;43.982;2023-05-14T12:51:24;5.07;;;4.38;;
74677;SDS011;67324;56.326;43.982;2023-05-14T12:53:50;5.18;;;4.60;;
74677;SDS011;67324;56.326;43.982;2023-05-14T12:56:18;4.47;;;4.07;;
74677;SDS011;67324;56.326;43.982;2023-05-14T12:58:45;4.65;;;4.07;;
74677;SDS011;67324;56.326;43.982;2023-05-14T13:01:30;5.05;;;4.55;;
74677;SDS011;67324;56.326;43.982;2023-05-14T13:03:56;4.57;;;4.03;;
74677;SDS011;67324;56.326;43.982;2023-05-14T13:06:23;4.13;;;3.72;;
74677;SDS011;67324;56.326;43.982;2023-05-14T13:08:48;4.40;;;3.92;;
74677;SDS011;67324;56.326;43.982;2023-05-14T13:11:14;4.80;;;4.20;;
74677;SDS011;67324;56.326;43.982;2023-05-14T13:13:40;5.18;;;4.15;;
74677;SDS011;67324;56.326;43.982;2023-05-14T13:16:06;4.97;;;4.28;;
74677;SDS011;67324;56.326;43.982;2023-05-14T13:18:32;4.70;;;4.20;;
74677;SDS011;67324;56.326;43.982;2023-05-14T13:20:58;4.75;;;4.07;;
74677;SDS011;67324;56.326;43.982;2023-05-14T13:23:24;5.32;;;4.00;;
74677;SDS011;67324;56.326;43.982;2023-05-14T13:25:50;5.10;;;4.32;;
74677;SDS011;67324;56.326;43.982;2023-05-14T13:28:16;4.47;;;3.95;;
74677;SDS011;67324;56.326;43.982;2023-05-14T13:30:44;4.88;;;4.20;;
74677;SDS011;67324;56.326;43.982;2023-05-14T13:33:28;6.50;;;4.30;;
74677;SDS011;67324;56.326;43.982;2023-05-14T13:35:54;4.82;;;4.22;;
74677;SDS011;67324;56.326;43.982;2023-05-14T13:38:20;5.18;;;4.10;;
74677;SDS011;67324;56.326;43.982;2023-05-14T13:40:45;4.80;;;4.00;;
74677;SDS011;67324;56.326;43.982;2023-05-14T13:43:11;4.30;;;3.90;;
74677;SDS011;67324;56.326;43.982;2023-05-14T13:45:37;4.70;;;4.10;;
74677;SDS011;67324;56.326;43.982;2023-05-14T13:48:03;4.40;;;4.00;;
74677;SDS011;67324;56.326;43.982;2023-05-14T13:50:29;4.43;;;4.00;;
74677;SDS011;67324;56.326;43.982;2023-05-14T13:52:55;4.45;;;3.92;;
74677;SDS011;67324;56.326;43.982;2023-05-14T13:55:21;5.25;;;3.92;;
74677;SDS011;67324;56.326;43.982;2023-05-14T13:57:47;5.57;;;4.22;;
74677;SDS011;67324;56.326;43.982;2023-05-14T14:00:13;4.70;;;4.10;;
74677;SDS011;67324;56.326;43.982;2023-05-14T14:02:40;4.82;;;4.13;;
74677;SDS011;67324;56.326;43.982;2023-05-14T14:05:06;4.10;;;3.70;;
74677;SDS011;67324;56.326;43.982;2023-05-14T14:07:32;4.85;;;4.35;;
74677;SDS011;67324;56.326;43.982;2023-05-14T14:09:58;4.50;;;4.10;;
74677;SDS011;67324;56.326;43.982;2023-05-14T14:12:26;4.30;;;3.90;;
74677;SDS011;67324;56.326;43.982;2023-05-14T14:14:52;5.15;;;4.10;;
74677;SDS011;67324;56.326;43.982;2023-05-14T14:17:18;5.07;;;4.13;;
74677;SDS011;67324;56.326;43.982;2023-05-14T14:19:44;4.45;;;4.05;;
74677;SDS011;67324;56.326;43.982;2023-05-14T14:22:10;5.38;;;4.32;;
74677;SDS011;67324;56.326;43.982;2023-05-14T14:24:36;4.90;;;4.03;;
74677;SDS011;67324;56.326;43.982;2023-05-14T14:27:02;4.50;;;4.00;;
74677;SDS011;67324;56.326;43.982;2023-05-14T14:29:29;4.45;;;4.03;;
74677;SDS011;67324;56.326;43.982;2023-05-14T14:31:55;4.78;;;3.78;;
74677;SDS011;67324;56.326;43.982;2023-05-14T14:34:21;5.13;;;4.43;;
74677;SDS011;67324;56.326;43.982;2023-05-14T14:36:47;4.40;;;4.00;;
74677;SDS011;67324;56.326;43.982;2023-05-14T14:39:13;4.90;;;4.05;;
74677;SDS011;67324;56.326;43.982;2023-05-14T14:41:39;4.75;;;3.90;;
74677;SDS011;67324;56.326;43.982;2023-05-14T14:44:05;4.43;;;4.00;;
74677;SDS011;67324;56.326;43.982;2023-05-14T14:46:31;5.68;;;4.13;;